| time (UTC) | temp C | wind direction | speed KPH | gust KPH | rain 1hr cm | rain 24hr cm | rain mn cm | humidity % | barometer mb |
| 20260503213030 | 31 | 344 | 3.2 | 9.7 | 0.00 | 0.00 | 0.00 | 22 | 1003.3 |
| 20260503212533 | 30 | 118 | 4.8 | 9.7 | 0.00 | 0.00 | 0.00 | 23 | 1003.4 |
| 20260503212029 | 30 | 344 | 1.6 | 12.9 | 0.00 | 0.00 | 0.00 | 24 | 1003.4 |
| 20260503211536 | 30 | 355 | 4.8 | 12.9 | 0.00 | 0.00 | 0.00 | 27 | 1003.4 |
| 20260503211027 | 30 | 13 | 1.6 | 11.3 | 0.00 | 0.00 | 0.00 | 24 | 1003.5 |
| 20260503210525 | 30 | 28 | 3.2 | 8.0 | 0.00 | 0.00 | 0.00 | 26 | 1003.6 |
| 20260503210024 | 30 | 355 | 4.8 | 9.7 | 0.00 | 0.00 | 0.00 | 23 | 1003.7 |
| 20260503205529 | 30 | 320 | 4.8 | 9.7 | 0.00 | 0.00 | 0.00 | 23 | 1003.7 |
| 20260503205022 | 30 | 16 | 3.2 | 9.7 | 0.00 | 0.00 | 0.00 | 24 | 1003.8 |
| 20260503204521 | 30 | 69 | 4.8 | 11.3 | 0.00 | 0.00 | 0.00 | 27 | 1003.9 |
| 20260503204019 | 30 | 279 | 4.8 | 11.3 | 0.00 | 0.00 | 0.00 | 24 | 1003.9 |
| 20260503203519 | 30 | 42 | 4.8 | 9.7 | 0.00 | 0.00 | 0.00 | 26 | 1004.0 |
| 20260503203021 | 30 | 312 | 4.8 | 11.3 | 0.00 | 0.00 | 0.00 | 25 | 1004.1 |
| 20260503202517 | 30 | 51 | 3.2 | 9.7 | 0.00 | 0.00 | 0.00 | 25 | 1004.2 |
| 20260503202017 | 29 | 19 | 3.2 | 9.7 | 0.00 | 0.00 | 0.00 | 26 | 1004.3 |
| 20260503201515 | 29 | 35 | 0.0 | 9.7 | 0.00 | 0.00 | 0.00 | 26 | 1004.4 |
| 20260503201014 | 29 | 39 | 3.2 | 9.7 | 0.00 | 0.00 | 0.00 | 26 | 1004.4 |
| 20260503200514 | 29 | 10 | 3.2 | 6.4 | 0.00 | 0.00 | 0.00 | 27 | 1004.5 |
| 20260503200012 | 29 | 232 | 1.6 | 8.0 | 0.00 | 0.00 | 0.00 | 27 | 1004.6 |
| 20260503195514 | 29 | 32 | 3.2 | 8.0 | 0.00 | 0.00 | 0.00 | 29 | 1004.6 |
| 20260503195010 | 29 | 98 | 3.2 | 8.0 | 0.00 | 0.00 | 0.00 | 28 | 1004.6 |
| 20260503194509 | 29 | 103 | 3.2 | 9.7 | 0.00 | 0.00 | 0.00 | 28 | 1004.5 |
| 20260503194008 | 28 | 150 | 0.0 | 6.4 | 0.00 | 0.00 | 0.00 | 31 | 1004.6 |
| 20260503193510 | 28 | 107 | 0.0 | 4.8 | 0.00 | 0.00 | 0.00 | 32 | 1004.7 |
| 20260503193016 | 28 | 242 | 0.0 | 6.4 | 0.00 | 0.00 | 0.00 | 30 | 1004.8 |
| 20260503192503 | 28 | 281 | 3.2 | 6.4 | 0.00 | 0.00 | 0.00 | 30 | 1004.8 |
| 20260503192002 | 27 | 250 | 0.0 | 4.8 | 0.00 | 0.00 | 0.00 | 35 | 1004.9 |
| 20260503191501 | 27 | 225 | 0.0 | 4.8 | 0.00 | 0.00 | 0.00 | 36 | 1004.9 |
| 20260503191100 | 27 | 91 | 0.0 | 6.4 | 0.00 | 0.00 | 0.00 | 37 | 1005.0 |
| 20260503190558 | 26 | 91 | 1.6 | 6.4 | 0.00 | 0.00 | 0.00 | 37 | 1005.0 |
| 20260503190101 | 26 | 86 | 1.6 | 6.4 | 0.00 | 0.00 | 0.00 | 37 | 1005.1 |
| 20260503185555 | 26 | 104 | 1.6 | 9.7 | 0.00 | 0.03 | 0.00 | 36 | 1005.1 |
| 20260503185055 | 26 | 92 | 4.8 | 9.7 | 0.00 | 0.03 | 0.00 | 37 | 1005.2 |
| 20260503184603 | 26 | 127 | 3.2 | 6.4 | 0.00 | 0.03 | 0.00 | 39 | 1005.3 |
| 20260503184051 | 26 | 153 | 1.6 | 6.4 | 0.00 | 0.03 | 0.00 | 42 | 1005.3 |
| 20260503183549 | 25 | 129 | 3.2 | 6.4 | 0.00 | 0.03 | 0.00 | 41 | 1005.4 |
| 20260503183048 | 25 | 90 | 0.0 | 6.4 | 0.00 | 0.03 | 0.00 | 39 | 1005.5 |
| 20260503182548 | 25 | 107 | 1.6 | 9.7 | 0.00 | 0.03 | 0.00 | 39 | 1005.5 |
| 20260503182046 | 25 | 95 | 4.8 | 9.7 | 0.00 | 0.03 | 0.00 | 39 | 1005.6 |
| 20260503181544 | 25 | 98 | 3.2 | 6.4 | 0.00 | 0.03 | 0.00 | 40 | 1005.6 |
| 20260503181043 | 25 | 96 | 0.0 | 9.7 | 0.00 | 0.03 | 0.00 | 44 | 1005.7 |
| 20260503180541 | 25 | 77 | 4.8 | 9.7 | 0.00 | 0.03 | 0.00 | 43 | 1005.8 |
| 20260503180040 | 24 | 91 | 0.0 | 6.4 | 0.00 | 0.03 | 0.00 | 44 | 1005.9 |
| 20260503175538 | 24 | 63 | 0.0 | 6.4 | 0.00 | 0.03 | 0.00 | 44 | 1005.9 |
| 20260503175037 | 24 | 72 | 3.2 | 6.4 | 0.00 | 0.03 | 0.00 | 43 | 1005.9 |
| 20260503174556 | 23 | 84 | 0.0 | 3.2 | 0.00 | 0.03 | 0.00 | 47 | 1005.9 |
| 20260503174035 | 23 | 85 | 0.0 | 6.4 | 0.00 | 0.03 | 0.00 | 47 | 1005.9 |
| 20260503173533 | 23 | 76 | 3.2 | 6.4 | 0.00 | 0.03 | 0.00 | 49 | 1006.0 |
| 20260503173032 | 23 | 103 | 0.0 | 9.7 | 0.00 | 0.03 | 0.00 | 49 | 1006.0 |
| 20260503172531 | 23 | 66 | 4.8 | 9.7 | 0.00 | 0.03 | 0.00 | 48 | 1006.0 |
| 20260503172032 | 23 | 59 | 0.0 | 6.4 | 0.00 | 0.03 | 0.00 | 49 | 1006.1 |
| 20260503171528 | 23 | 138 | 1.6 | 6.4 | 0.00 | 0.03 | 0.00 | 52 | 1006.1 |
| 20260503171027 | 22 | 132 | 3.2 | 8.0 | 0.00 | 0.03 | 0.00 | 54 | 1006.0 |
| 20260503170528 | 22 | 131 | 3.2 | 8.0 | 0.00 | 0.03 | 0.00 | 53 | 1006.0 |
| 20260503150549 | 14 | 23 | 0.0 | 0.0 | 0.00 | 0.03 | 0.00 | 87 | 1006.4 |
| 20260503131025 | 8 | 303 | 0.0 | 3.2 | 0.00 | 0.03 | 0.00 | 79 | 1006.0 |
| 20260503130521 | 8 | 303 | 0.0 | 4.8 | 0.00 | 0.03 | 0.00 | 79 | 1005.9 |
| 20260503110512 | 8 | 160 | 0.0 | 0.0 | 0.00 | 0.03 | 0.00 | 74 | 1006.3 |
| 20260503081553 | 11 | 160 | 0.0 | 3.2 | 0.00 | 0.03 | 0.00 | 72 | 1006.8 |
| 20260503081048 | 11 | 160 | 0.0 | 0.0 | 0.00 | 0.03 | 0.00 | 72 | 1006.7 |
| 20260503080549 | 11 | 160 | 0.0 | 0.0 | 0.00 | 0.03 | 0.00 | 72 | 1006.8 |
| 20260503072542 | 12 | 160 | 0.0 | 0.0 | 0.00 | 0.03 | 0.00 | 70 | 1006.8 |
| 20260503072043 | 12 | 160 | 0.0 | 0.0 | 0.00 | 0.03 | 0.00 | 70 | 1006.7 |
| 20260503071544 | 12 | 160 | 0.0 | 0.0 | 0.00 | 0.03 | 0.00 | 70 | 1006.8 |
| 20260503071038 | 12 | 160 | 0.0 | 0.0 | 0.00 | 0.03 | 0.00 | 70 | 1006.9 |
| 20260503070537 | 13 | 160 | 0.0 | 0.0 | 0.00 | 0.03 | 0.00 | 70 | 1006.9 |
| 20260503055033 | 15 | 160 | 0.0 | 3.2 | 0.00 | 0.03 | 0.03 | 68 | 1006.8 |
| 20260503054536 | 15 | 132 | 1.6 | 3.2 | 0.00 | 0.03 | 0.03 | 67 | 1007.0 |
| 20260503054034 | 15 | 273 | 0.0 | 1.6 | 0.00 | 0.03 | 0.03 | 68 | 1007.0 |
| 20260503053533 | 15 | 273 | 0.0 | 1.6 | 0.00 | 0.03 | 0.03 | 67 | 1006.9 |
| 20260503053034 | 15 | 273 | 0.0 | 0.0 | 0.00 | 0.03 | 0.03 | 67 | 1007.0 |
| 20260503052533 | 15 | 273 | 0.0 | 0.0 | 0.00 | 0.03 | 0.03 | 67 | 1007.0 |
| 20260503052034 | 15 | 273 | 0.0 | 0.0 | 0.00 | 0.03 | 0.03 | 67 | 1007.1 |
| 20260503051533 | 15 | 273 | 0.0 | 0.0 | 0.00 | 0.03 | 0.03 | 67 | 1007.0 |
| 20260503051032 | 15 | 273 | 0.0 | 0.0 | 0.00 | 0.03 | 0.03 | 67 | 1007.1 |
| 20260503050531 | 15 | 273 | 0.0 | 0.0 | 0.00 | 0.03 | 0.03 | 67 | 1007.1 |
| 20260503050032 | 15 | 273 | 0.0 | 4.8 | 0.00 | 0.03 | 0.03 | 67 | 1007.0 |
| 20260503045532 | 15 | 273 | 0.0 | 4.8 | 0.00 | 0.03 | 0.03 | 67 | 1007.0 |
| 20260503045031 | 16 | 275 | 1.6 | 3.2 | 0.00 | 0.03 | 0.03 | 66 | 1007.0 |
| 20260503044539 | 16 | 269 | 1.6 | 3.2 | 0.00 | 0.03 | 0.03 | 65 | 1007.0 |
| 20260503044031 | 16 | 269 | 0.0 | 3.2 | 0.00 | 0.03 | 0.03 | 65 | 1007.1 |
| 20260503043533 | 16 | 246 | 0.0 | 3.2 | 0.00 | 0.03 | 0.03 | 65 | 1007.1 |
| 20260503043033 | 16 | 167 | 0.0 | 3.2 | 0.00 | 0.03 | 0.03 | 64 | 1007.1 |
| 20260503042530 | 16 | 167 | 1.6 | 4.8 | 0.00 | 0.03 | 0.03 | 63 | 1007.2 |
| 20260503042033 | 16 | 164 | 0.0 | 3.2 | 0.00 | 0.03 | 0.03 | 62 | 1007.2 |
| 20260503041531 | 16 | 286 | 0.0 | 0.0 | 0.00 | 0.03 | 0.03 | 62 | 1007.2 |
| 20260503041030 | 16 | 286 | 0.0 | 0.0 | 0.00 | 0.03 | 0.03 | 62 | 1007.2 |
| 20260503040530 | 17 | 286 | 0.0 | 0.0 | 0.00 | 0.03 | 0.03 | 62 | 1007.1 |
| 20260503040031 | 17 | 286 | 0.0 | 1.6 | 0.00 | 0.03 | 0.03 | 62 | 1007.0 |
| 20260503035529 | 17 | 286 | 0.0 | 8.0 | 0.00 | 0.03 | 0.03 | 61 | 1006.9 |
| 20260503035030 | 17 | 286 | 0.0 | 8.0 | 0.00 | 0.03 | 0.03 | 61 | 1006.8 |
| 20260503034530 | 17 | 296 | 1.6 | 6.4 | 0.00 | 0.03 | 0.03 | 61 | 1006.6 |
| 20260503034032 | 17 | 320 | 1.6 | 4.8 | 0.00 | 0.03 | 0.03 | 60 | 1006.6 |
| 20260503033531 | 17 | 338 | 0.0 | 8.0 | 0.00 | 0.03 | 0.03 | 60 | 1006.6 |
| 20260503033032 | 17 | 295 | 1.6 | 11.3 | 0.00 | 0.03 | 0.03 | 59 | 1006.6 |
| 20260503032530 | 17 | 263 | 4.8 | 9.7 | 0.00 | 0.03 | 0.03 | 58 | 1006.5 |
| 20260503032030 | 18 | 289 | 3.2 | 6.4 | 0.00 | 0.03 | 0.03 | 58 | 1006.6 |
| 20260503031529 | 18 | 290 | 0.0 | 9.7 | 0.00 | 0.03 | 0.03 | 57 | 1006.8 |
| 20260503031030 | 18 | 271 | 3.2 | 11.3 | 0.00 | 0.03 | 0.03 | 57 | 1006.7 |
| 20260503030528 | 18 | 290 | 6.4 | 11.3 | 0.00 | 0.03 | 0.03 | 56 | 1006.4 |
| 20260503030028 | 19 | 262 | 3.2 | 9.7 | 0.00 | 0.03 | 0.03 | 56 | 1006.6 |
| 20260503025527 | 19 | 218 | 1.6 | 6.4 | 0.00 | 0.03 | 0.03 | 56 | 1006.6 |
| 20260503025027 | 19 | 176 | 0.0 | 4.8 | 0.00 | 0.03 | 0.03 | 57 | 1006.6 |
| 20260503024527 | 20 | 250 | 0.0 | 1.6 | 0.00 | 0.03 | 0.03 | 57 | 1006.5 |
| 20260503024028 | 20 | 226 | 0.0 | 3.2 | 0.00 | 0.03 | 0.03 | 57 | 1006.5 |
| 20260503023527 | 20 | 231 | 0.0 | 3.2 | 0.00 | 0.03 | 0.03 | 57 | 1006.3 |
| 20260503023027 | 20 | 198 | 0.0 | 4.8 | 0.00 | 0.03 | 0.03 | 57 | 1006.4 |
| 20260503022528 | 20 | 138 | 0.0 | 19.3 | 0.00 | 0.03 | 0.03 | 57 | 1006.4 |
| 20260503022026 | 20 | 129 | 4.8 | 19.3 | 0.00 | 0.03 | 0.03 | 57 | 1006.3 |
| 20260503021526 | 20 | 148 | 8.0 | 16.1 | 0.00 | 0.03 | 0.03 | 57 | 1006.4 |
| 20260503021026 | 20 | 143 | 1.6 | 8.0 | 0.00 | 0.03 | 0.03 | 57 | 1006.3 |
| 20260503020525 | 20 | 142 | 0.0 | 0.0 | 0.00 | 0.03 | 0.03 | 57 | 1006.0 |
| 20260503020026 | 20 | 155 | 0.0 | 0.0 | 0.00 | 0.03 | 0.03 | 57 | 1005.9 |
| 20260503015526 | 20 | 129 | 0.0 | 0.0 | 0.00 | 0.03 | 0.03 | 57 | 1005.8 |
| 20260503015025 | 20 | 129 | 0.0 | 6.4 | 0.00 | 0.03 | 0.03 | 57 | 1005.7 |
| 20260503014525 | 20 | 129 | 0.0 | 9.7 | 0.00 | 0.03 | 0.03 | 56 | 1005.7 |
| 20260503014025 | 20 | 117 | 3.2 | 9.7 | 0.00 | 0.03 | 0.03 | 56 | 1005.7 |
| 20260503013525 | 20 | 121 | 0.0 | 8.0 | 0.00 | 0.03 | 0.03 | 56 | 1005.7 |
| 20260503013025 | 20 | 127 | 1.6 | 12.9 | 0.00 | 0.03 | 0.03 | 55 | 1005.7 |
| 20260503012525 | 21 | 141 | 1.6 | 12.9 | 0.00 | 0.03 | 0.03 | 55 | 1005.7 |
| 20260503012024 | 21 | 148 | 3.2 | 6.4 | 0.00 | 0.03 | 0.03 | 54 | 1005.6 |
| 20260503011527 | 21 | 145 | 1.6 | 6.4 | 0.00 | 0.03 | 0.03 | 55 | 1005.6 |
| 20260503011026 | 21 | 119 | 3.2 | 6.4 | 0.00 | 0.03 | 0.03 | 53 | 1005.6 |
| 20260503010523 | 21 | 137 | 0.0 | 4.8 | 0.00 | 0.03 | 0.03 | 54 | 1005.5 |
| 20260503010025 | 21 | 137 | 0.0 | 4.8 | 0.00 | 0.03 | 0.03 | 54 | 1005.6 |
| 20260503005523 | 21 | 136 | 1.6 | 4.8 | 0.00 | 0.03 | 0.03 | 54 | 1005.5 |
| 20260503005023 | 21 | 112 | 1.6 | 4.8 | 0.00 | 0.03 | 0.03 | 54 | 1005.5 |
| 20260503004529 | 21 | 100 | 1.6 | 4.8 | 0.00 | 0.03 | 0.03 | 54 | 1005.5 |
| 20260503004024 | 21 | 100 | 0.0 | 4.8 | 0.00 | 0.03 | 0.03 | 53 | 1005.6 |
| 20260503003522 | 21 | 100 | 1.6 | 6.4 | 0.00 | 0.03 | 0.03 | 53 | 1005.6 |
| 20260503003039 | 21 | 118 | 3.2 | 6.4 | 0.00 | 0.03 | 0.03 | 52 | 1005.6 |
| 20260503002522 | 21 | 130 | 3.2 | 4.8 | 0.00 | 0.03 | 0.03 | 50 | 1005.5 |
| 20260503002026 | 21 | 131 | 1.6 | 4.8 | 0.00 | 0.03 | 0.03 | 50 | 1005.5 |
| 20260503001542 | 21 | 130 | 1.6 | 4.8 | 0.00 | 0.03 | 0.03 | 50 | 1005.6 |
| 20260503001020 | 21 | 130 | 0.0 | 6.4 | 0.00 | 0.03 | 0.03 | 51 | 1005.6 |
| 20260503000522 | 21 | 130 | 1.6 | 6.4 | 0.00 | 0.03 | 0.03 | 51 | 1005.7 |
| 20260503000019 | 21 | 132 | 1.6 | 4.8 | 0.00 | 0.03 | 0.03 | 50 | 1005.7 |
| 20260502235619 | 21 | 117 | 0.0 | 0.0 | 0.00 | 0.03 | 0.03 | 50 | 1005.7 |
| 20260502235018 | 21 | 112 | 0.0 | 1.6 | 0.00 | 0.03 | 0.03 | 50 | 1005.8 |
| 20260502234520 | 21 | 114 | 0.0 | 1.6 | 0.00 | 0.03 | 0.03 | 51 | 1005.9 |
| 20260502234019 | 21 | 144 | 0.0 | 4.8 | 0.00 | 0.03 | 0.03 | 50 | 1006.0 |
| 20260502233516 | 21 | 151 | 0.0 | 8.0 | 0.00 | 0.03 | 0.03 | 51 | 1006.1 |
| 20260502233021 | 21 | 138 | 0.0 | 9.7 | 0.00 | 0.03 | 0.03 | 52 | 1006.2 |
| 20260502232513 | 21 | 109 | 1.6 | 9.7 | 0.00 | 0.03 | 0.03 | 53 | 1006.3 |
| 20260502232012 | 21 | 114 | 4.8 | 9.7 | 0.00 | 0.03 | 0.03 | 52 | 1006.4 |
| 20260502231511 | 21 | 137 | 4.8 | 8.0 | 0.00 | 0.03 | 0.03 | 53 | 1006.4 |
| 20260502231010 | 20 | 92 | 3.2 | 12.9 | 0.00 | 0.03 | 0.03 | 53 | 1006.5 |
| 20260502230512 | 20 | 108 | 4.8 | 11.3 | 0.00 | 0.03 | 0.03 | 55 | 1006.5 |
| 20260502230007 | 20 | 93 | 4.8 | 11.3 | 0.00 | 0.03 | 0.03 | 54 | 1006.6 |
| 20260502225507 | 20 | 110 | 3.2 | 11.3 | 0.00 | 0.03 | 0.03 | 54 | 1006.7 |
| 20260502225009 | 20 | 107 | 6.4 | 11.3 | 0.00 | 0.03 | 0.03 | 55 | 1006.7 |
| 20260502224506 | 19 | 113 | 8.0 | 11.3 | 0.00 | 0.03 | 0.03 | 54 | 1006.7 |
| 20260502224006 | 19 | 119 | 4.8 | 9.7 | 0.00 | 0.03 | 0.03 | 54 | 1006.8 |
| 20260502223506 | 19 | 115 | 4.8 | 9.7 | 0.00 | 0.03 | 0.03 | 54 | 1007.0 |
| 20260502223013 | 19 | 113 | 3.2 | 9.7 | 0.00 | 0.03 | 0.03 | 54 | 1007.1 |
| 20260502222503 | 19 | 112 | 3.2 | 9.7 | 0.00 | 0.03 | 0.03 | 54 | 1007.3 |
| 20260502222002 | 19 | 99 | 3.2 | 11.3 | 0.00 | 0.03 | 0.03 | 53 | 1007.3 |
| 20260502221502 | 20 | 97 | 4.8 | 11.3 | 0.00 | 0.03 | 0.03 | 54 | 1007.4 |
| 20260502221002 | 20 | 84 | 6.4 | 9.7 | 0.00 | 0.03 | 0.03 | 52 | 1007.6 |
| 20260502220600 | 20 | 137 | 4.8 | 9.7 | 0.00 | 0.03 | 0.03 | 50 | 1007.7 |
| 20260502220100 | 20 | 42 | 3.2 | 9.7 | 0.00 | 0.03 | 0.03 | 51 | 1007.8 |
| 20260502215559 | 19 | 296 | 1.6 | 8.0 | 0.00 | 0.03 | 0.03 | 52 | 1007.8 |
| 20260502215058 | 19 | 350 | 3.2 | 8.0 | 0.00 | 0.03 | 0.03 | 52 | 1007.8 |
| 20260502214603 | 19 | 5 | 1.6 | 8.0 | 0.00 | 0.03 | 0.03 | 52 | 1007.8 |
| 20260502214054 | 18 | 46 | 1.6 | 12.9 | 0.00 | 0.03 | 0.03 | 53 | 1007.8 |
| 20260502213553 | 18 | 34 | 4.8 | 12.9 | 0.00 | 0.03 | 0.03 | 54 | 1007.9 |